Time;durP1;ratioP1;P1;durP2;ratioP2;P2;SDS_P1;SDS_P2;PMS_P1;PMS_P2;Temp;Humidity;BMP_temperature;BMP_pressure;BME280_temperature;BME280_humidity;BME280_pressure;Samples;Min_cycle;Max_cycle;Signal;HPM_P1;HPM_P2
2024/01/30 00:01:54;;;;;;;14.07;8.60;;;;;;;;;;5051219;28;20462;-60
2024/01/30 00:04:19;;;;;;;15.43;9.20;;;;;;;;;;5051757;28;20048;-59
2024/01/30 00:06:45;;;;;;;16.45;9.23;;;;;;;;;;5048271;28;20057;-59
2024/01/30 00:09:11;;;;;;;14.20;9.02;;;;;;;;;;5051872;28;20439;-59
2024/01/30 00:11:39;;;;;;;15.57;9.05;;;;;;;;;;5043236;28;20064;-60
2024/01/30 00:14:04;;;;;;;15.13;8.88;;;;;;;;;;5047716;28;20048;-60
2024/01/30 00:16:30;;;;;;;13.60;8.45;;;;;;;;;;5049913;28;20436;-59
2024/01/30 00:18:56;;;;;;;13.55;8.40;;;;;;;;;;5051044;28;20037;-60
2024/01/30 00:21:21;;;;;;;15.60;8.35;;;;;;;;;;5047912;28;20033;-59
2024/01/30 00:23:47;;;;;;;13.40;8.32;;;;;;;;;;5050855;28;20041;-59
2024/01/30 00:26:14;;;;;;;15.05;8.95;;;;;;;;;;5047530;28;20078;-59
2024/01/30 00:28:40;;;;;;;16.30;8.95;;;;;;;;;;5043463;28;20029;-60
2024/01/30 00:31:05;;;;;;;14.27;8.98;;;;;;;;;;5037079;28;20029;-59
2024/01/30 00:33:31;;;;;;;13.43;8.80;;;;;;;;;;5053814;28;20055;-60
2024/01/30 00:35:56;;;;;;;15.20;9.30;;;;;;;;;;5051038;28;20033;-59
2024/01/30 00:38:22;;;;;;;17.35;8.98;;;;;;;;;;5049595;28;20492;-59
2024/01/30 00:40:47;;;;;;;14.85;8.40;;;;;;;;;;5052030;28;20036;-60
2024/01/30 00:43:13;;;;;;;14.93;8.27;;;;;;;;;;5050669;28;20029;-60
2024/01/30 00:45:38;;;;;;;16.55;8.95;;;;;;;;;;5052368;28;20036;-60
2024/01/30 00:48:04;;;;;;;15.38;8.88;;;;;;;;;;5047218;28;20037;-59
2024/01/30 00:50:29;;;;;;;16.10;8.20;;;;;;;;;;5048260;28;20474;-61
2024/01/30 00:52:55;;;;;;;13.65;8.80;;;;;;;;;;5044256;28;20051;-61
2024/01/30 00:55:20;;;;;;;20.05;9.13;;;;;;;;;;5052217;28;20041;-60
2024/01/30 00:57:47;;;;;;;13.23;8.15;;;;;;;;;;5039976;28;20029;-60
2024/01/30 01:00:13;;;;;;;13.00;8.32;;;;;;;;;;5050321;28;20078;-59
2024/01/30 01:02:41;;;;;;;15.15;8.93;;;;;;;;;;5050925;28;20052;-60
2024/01/30 01:05:07;;;;;;;14.73;9.13;;;;;;;;;;5043028;28;20075;-60
2024/01/30 01:07:32;;;;;;;13.93;8.82;;;;;;;;;;5045485;28;20037;-59
2024/01/30 01:09:57;;;;;;;13.98;8.43;;;;;;;;;;5049455;28;20037;-60
2024/01/30 01:12:23;;;;;;;15.23;8.30;;;;;;;;;;5052117;28;20033;-59
2024/01/30 01:14:48;;;;;;;14.07;8.80;;;;;;;;;;5044749;28;20033;-59
2024/01/30 01:17:14;;;;;;;13.02;8.35;;;;;;;;;;5032759;28;20419;-59
2024/01/30 01:19:39;;;;;;;13.20;7.97;;;;;;;;;;5049954;28;20068;-59
2024/01/30 01:22:04;;;;;;;12.45;8.57;;;;;;;;;;5041474;28;20029;-60
2024/01/30 01:24:34;;;;;;;14.95;7.97;;;;;;;;;;5049686;28;20488;-59
2024/01/30 01:26:59;;;;;;;12.25;7.90;;;;;;;;;;5031945;28;20458;-59
2024/01/30 01:29:28;;;;;;;13.32;8.45;;;;;;;;;;5035955;28;20026;-60
2024/01/30 01:31:55;;;;;;;13.63;8.55;;;;;;;;;;5031586;28;20104;-60
2024/01/30 01:34:21;;;;;;;13.00;8.38;;;;;;;;;;5046090;28;20033;-59
2024/01/30 01:36:47;;;;;;;13.57;8.52;;;;;;;;;;5040594;28;20037;-60
2024/01/30 01:39:12;;;;;;;15.73;8.77;;;;;;;;;;5032910;28;20458;-60
2024/01/30 01:41:37;;;;;;;13.93;8.38;;;;;;;;;;5041599;28;20470;-59
2024/01/30 01:44:03;;;;;;;15.88;8.68;;;;;;;;;;5031526;28;20060;-60
2024/01/30 01:46:31;;;;;;;14.00;8.35;;;;;;;;;;5032386;28;20029;-59
2024/01/30 01:48:57;;;;;;;16.63;9.13;;;;;;;;;;5031453;28;20386;-59
2024/01/30 01:51:26;;;;;;;16.90;9.05;;;;;;;;;;5036660;28;20458;-59
2024/01/30 01:53:53;;;;;;;13.60;8.45;;;;;;;;;;5042464;28;20121;-59
2024/01/30 01:56:19;;;;;;;13.68;9.13;;;;;;;;;;5051053;28;20033;-60
2024/01/30 01:58:46;;;;;;;17.35;9.30;;;;;;;;;;5042370;28;20027;-59
2024/01/30 02:01:13;;;;;;;14.10;8.15;;;;;;;;;;5031174;28;20367;-60
2024/01/30 02:03:40;;;;;;;16.95;8.80;;;;;;;;;;5050308;28;20032;-59
2024/01/30 02:06:06;;;;;;;14.60;8.43;;;;;;;;;;5049166;28;20094;-60
2024/01/30 02:08:32;;;;;;;16.02;8.52;;;;;;;;;;5049029;28;20074;-60
2024/01/30 02:10:57;;;;;;;17.17;8.98;;;;;;;;;;5049676;28;20040;-60
2024/01/30 02:13:22;;;;;;;15.20;9.07;;;;;;;;;;5040437;28;20080;-60
2024/01/30 02:15:51;;;;;;;12.73;8.00;;;;;;;;;;5049947;28;20457;-59
2024/01/30 02:18:16;;;;;;;12.95;7.93;;;;;;;;;;5048547;28;20032;-59
2024/01/30 02:20:43;;;;;;;15.10;8.55;;;;;;;;;;5047967;28;20103;-59
2024/01/30 02:23:10;;;;;;;15.95;8.80;;;;;;;;;;5047140;28;20041;-59
2024/01/30 02:25:44;;;;;;;16.13;9.05;;;;;;;;;;5047100;28;20445;-59
2024/01/30 02:28:10;;;;;;;12.77;8.15;;;;;;;;;;5048882;28;20037;-60
2024/01/30 02:30:36;;;;;;;17.55;9.13;;;;;;;;;;5044342;28;20171;-60
2024/01/30 02:33:01;;;;;;;15.63;9.00;;;;;;;;;;5050061;28;20123;-60
2024/01/30 02:35:26;;;;;;;17.75;9.18;;;;;;;;;;5044391;28;20040;-60
2024/01/30 02:37:52;;;;;;;15.68;9.10;;;;;;;;;;5050099;28;20446;-59
2024/01/30 02:40:17;;;;;;;15.32;9.38;;;;;;;;;;5049030;28;20090;-59
2024/01/30 02:42:43;;;;;;;19.63;9.48;;;;;;;;;;5045903;28;21576;-59
2024/01/30 02:45:09;;;;;;;14.77;9.20;;;;;;;;;;5048566;28;20103;-59
2024/01/30 02:47:35;;;;;;;14.32;8.30;;;;;;;;;;5049452;28;20128;-59
2024/01/30 02:50:00;;;;;;;12.88;8.60;;;;;;;;;;5050156;28;20025;-60
2024/01/30 02:52:26;;;;;;;13.32;8.57;;;;;;;;;;5045791;28;20037;-59
2024/01/30 02:54:51;;;;;;;13.38;8.70;;;;;;;;;;5050267;28;20424;-60
2024/01/30 02:57:16;;;;;;;13.43;8.75;;;;;;;;;;5048742;28;20029;-60
2024/01/30 02:59:42;;;;;;;13.88;8.60;;;;;;;;;;5047353;28;20450;-59
2024/01/30 03:02:07;;;;;;;13.57;8.50;;;;;;;;;;5047639;28;20094;-59
2024/01/30 03:04:33;;;;;;;17.02;9.20;;;;;;;;;;5049427;28;20087;-60
2024/01/30 03:06:58;;;;;;;14.80;9.10;;;;;;;;;;5050506;28;20025;-59
2024/01/30 03:09:23;;;;;;;14.65;8.88;;;;;;;;;;5048603;28;20064;-60
2024/01/30 03:11:49;;;;;;;15.68;8.75;;;;;;;;;;5050103;28;20091;-60
2024/01/30 03:14:14;;;;;;;17.55;9.95;;;;;;;;;;5036011;28;20108;-60
2024/01/30 03:16:39;;;;;;;15.77;8.98;;;;;;;;;;5048974;28;20496;-60
2024/01/30 03:19:09;;;;;;;18.15;9.70;;;;;;;;;;5048888;28;20043;-59
2024/01/30 03:21:34;;;;;;;15.95;9.07;;;;;;;;;;5047275;28;20166;-59
2024/01/30 03:24:00;;;;;;;15.15;8.93;;;;;;;;;;5049862;28;20493;-59
2024/01/30 03:26:25;;;;;;;14.50;8.68;;;;;;;;;;5053276;28;20040;-59
2024/01/30 03:28:51;;;;;;;14.93;9.02;;;;;;;;;;5052581;28;20029;-60
2024/01/30 03:31:16;;;;;;;15.75;9.30;;;;;;;;;;5041494;28;20478;-60
2024/01/30 03:33:42;;;;;;;14.00;8.43;;;;;;;;;;5039023;28;20034;-60
2024/01/30 03:36:09;;;;;;;16.60;9.52;;;;;;;;;;5048218;28;20037;-60
2024/01/30 03:38:34;;;;;;;14.73;8.85;;;;;;;;;;5045924;28;20083;-59
2024/01/30 03:41:00;;;;;;;17.83;8.77;;;;;;;;;;5036838;28;20053;-60
2024/01/30 03:43:26;;;;;;;15.45;8.55;;;;;;;;;;5047028;28;20037;-59
2024/01/30 03:45:51;;;;;;;15.60;8.73;;;;;;;;;;5048461;28;20034;-60
2024/01/30 03:48:17;;;;;;;15.20;8.02;;;;;;;;;;5048019;28;20473;-60
2024/01/30 03:50:42;;;;;;;14.60;8.75;;;;;;;;;;5053361;28;20040;-60
2024/01/30 03:53:08;;;;;;;15.75;8.68;;;;;;;;;;5052154;28;20029;-60
2024/01/30 03:55:34;;;;;;;13.40;8.20;;;;;;;;;;5046700;28;20127;-60
2024/01/30 03:58:00;;;;;;;18.88;8.27;;;;;;;;;;5052283;28;20025;-60
2024/01/30 04:00:25;;;;;;;16.98;8.88;;;;;;;;;;5050722;28;20230;-60
2024/01/30 04:02:51;;;;;;;13.63;8.25;;;;;;;;;;5052852;28;20034;-59
2024/01/30 04:05:16;;;;;;;15.45;8.55;;;;;;;;;;5043400;28;20439;-60
2024/01/30 04:07:42;;;;;;;14.27;8.68;;;;;;;;;;5050622;28;20455;-60
2024/01/30 04:10:09;;;;;;;15.77;8.30;;;;;;;;;;5050239;28;20029;-61
2024/01/30 04:12:35;;;;;;;13.13;8.50;;;;;;;;;;5038578;28;20033;-60
2024/01/30 04:15:00;;;;;;;15.40;8.60;;;;;;;;;;5041511;28;20039;-60
2024/01/30 04:17:26;;;;;;;15.95;8.05;;;;;;;;;;5035424;28;20076;-60
2024/01/30 04:19:51;;;;;;;13.38;8.60;;;;;;;;;;5034209;28;20030;-60
2024/01/30 04:22:17;;;;;;;13.10;8.00;;;;;;;;;;5036988;28;20033;-59
2024/01/30 04:24:42;;;;;;;14.73;8.00;;;;;;;;;;5048671;28;20465;-59
2024/01/30 04:27:07;;;;;;;16.50;7.60;;;;;;;;;;5033164;28;20071;-60
2024/01/30 04:29:33;;;;;;;13.52;8.13;;;;;;;;;;5032067;28;20469;-60
2024/01/30 04:31:59;;;;;;;13.80;8.15;;;;;;;;;;5051725;28;20048;-61
2024/01/30 04:34:25;;;;;;;17.98;8.40;;;;;;;;;;5050032;28;20045;-60
2024/01/30 04:36:50;;;;;;;12.80;8.02;;;;;;;;;;5050766;28;20040;-60
2024/01/30 04:39:15;;;;;;;15.68;8.10;;;;;;;;;;5050540;28;20186;-60
2024/01/30 04:41:41;;;;;;;17.13;8.57;;;;;;;;;;5051582;28;20726;-60
2024/01/30 04:44:06;;;;;;;13.07;7.90;;;;;;;;;;5051019;28;20047;-60
2024/01/30 04:46:33;;;;;;;16.83;7.88;;;;;;;;;;5051821;28;20587;-60
2024/01/30 04:48:59;;;;;;;13.10;7.82;;;;;;;;;;5052715;28;20029;-61
2024/01/30 04:51:24;;;;;;;13.85;8.07;;;;;;;;;;5052723;28;20036;-60
2024/01/30 04:53:50;;;;;;;16.02;8.77;;;;;;;;;;5052486;28;20158;-60
2024/01/30 04:56:15;;;;;;;17.27;8.57;;;;;;;;;;5037442;28;20037;-60
2024/01/30 04:58:40;;;;;;;14.20;8.23;;;;;;;;;;5038281;28;20378;-60
2024/01/30 05:01:06;;;;;;;14.73;9.05;;;;;;;;;;5051194;28;20380;-60
2024/01/30 05:03:35;;;;;;;18.05;10.10;;;;;;;;;;5038592;28;20091;-60
2024/01/30 05:06:00;;;;;;;13.77;8.88;;;;;;;;;;5031400;28;20033;-60
2024/01/30 05:08:25;;;;;;;13.45;8.13;;;;;;;;;;5032960;28;20075;-60
2024/01/30 05:10:51;;;;;;;15.73;8.25;;;;;;;;;;5033445;28;20034;-60
2024/01/30 05:13:16;;;;;;;13.60;7.82;;;;;;;;;;5040031;28;20602;-60
2024/01/30 05:15:42;;;;;;;13.80;8.20;;;;;;;;;;5053066;28;20033;-59
2024/01/30 05:18:07;;;;;;;15.25;8.57;;;;;;;;;;5036889;28;20041;-60
2024/01/30 05:20:32;;;;;;;11.57;7.32;;;;;;;;;;5032696;28;20032;-60
2024/01/30 05:22:58;;;;;;;14.50;7.40;;;;;;;;;;5032326;28;20048;-60
2024/01/30 05:25:23;;;;;;;15.88;8.30;;;;;;;;;;5032654;28;20044;-60
2024/01/30 05:27:49;;;;;;;13.27;7.60;;;;;;;;;;5034198;28;20420;-60
2024/01/30 05:30:15;;;;;;;13.65;7.75;;;;;;;;;;5051966;28;20044;-60
2024/01/30 05:32:40;;;;;;;12.60;7.25;;;;;;;;;;5047986;28;20033;-60
2024/01/30 05:35:07;;;;;;;18.00;7.75;;;;;;;;;;5032399;28;20052;-60
2024/01/30 05:37:33;;;;;;;14.10;7.70;;;;;;;;;;5032994;28;20029;-60
2024/01/30 05:39:58;;;;;;;12.88;7.70;;;;;;;;;;5050364;28;20031;-60
2024/01/30 05:42:24;;;;;;;12.75;7.60;;;;;;;;;;5051598;28;20470;-60
2024/01/30 05:44:50;;;;;;;11.98;7.18;;;;;;;;;;5051539;28;20033;-59
2024/01/30 05:47:15;;;;;;;12.65;7.53;;;;;;;;;;5051780;28;20056;-60
2024/01/30 05:49:41;;;;;;;13.02;7.80;;;;;;;;;;5051021;28;20032;-60
2024/01/30 05:52:06;;;;;;;13.43;7.80;;;;;;;;;;5031809;28;20037;-60
2024/01/30 05:54:32;;;;;;;13.82;7.70;;;;;;;;;;5033000;28;20029;-59
2024/01/30 05:56:57;;;;;;;13.00;7.72;;;;;;;;;;5038243;28;20493;-59
2024/01/30 05:59:22;;;;;;;14.43;8.00;;;;;;;;;;5051500;28;20040;-60
2024/01/30 06:01:48;;;;;;;13.75;8.43;;;;;;;;;;5035959;28;20033;-61
2024/01/30 06:04:14;;;;;;;12.57;7.80;;;;;;;;;;5031576;28;20579;-61
2024/01/30 06:06:40;;;;;;;13.02;7.70;;;;;;;;;;5032162;28;20038;-61
2024/01/30 06:09:07;;;;;;;12.55;7.38;;;;;;;;;;5036385;28;20032;-61
2024/01/30 06:11:33;;;;;;;10.77;7.43;;;;;;;;;;5051503;28;20116;-61
2024/01/30 06:13:58;;;;;;;11.68;7.40;;;;;;;;;;5051889;28;20112;-61
2024/01/30 06:16:24;;;;;;;13.27;7.72;;;;;;;;;;5042852;28;20025;-60
2024/01/30 06:18:49;;;;;;;14.32;8.10;;;;;;;;;;5031992;28;20524;-60
2024/01/30 06:21:14;;;;;;;14.52;7.40;;;;;;;;;;5030896;28;20033;-60
2024/01/30 06:23:40;;;;;;;12.32;7.45;;;;;;;;;;5031482;28;20045;-60
2024/01/30 06:26:07;;;;;;;14.15;7.93;;;;;;;;;;5043751;28;20120;-61
2024/01/30 06:28:32;;;;;;;13.05;7.60;;;;;;;;;;5055951;28;20040;-66
2024/01/30 06:30:57;;;;;;;15.00;7.45;;;;;;;;;;5054603;28;20033;-60
2024/01/30 06:33:23;;;;;;;13.85;7.38;;;;;;;;;;5051085;28;20670;-63
2024/01/30 06:35:48;;;;;;;13.00;7.72;;;;;;;;;;5051480;28;20123;-64
2024/01/30 06:38:15;;;;;;;12.32;7.40;;;;;;;;;;5036294;28;20040;-65
2024/01/30 06:40:41;;;;;;;12.18;8.32;;;;;;;;;;5040134;28;20041;-65
2024/01/30 06:43:07;;;;;;;15.02;7.63;;;;;;;;;;5030396;28;20041;-63
2024/01/30 06:45:34;;;;;;;15.10;7.78;;;;;;;;;;5035267;28;20032;-64
2024/01/30 06:48:00;;;;;;;14.95;8.18;;;;;;;;;;5036187;28;20044;-65
2024/01/30 06:50:26;;;;;;;15.25;8.10;;;;;;;;;;5030950;28;20029;-64
2024/01/30 06:52:51;;;;;;;14.50;8.25;;;;;;;;;;5042655;28;20037;-64
2024/01/30 06:55:16;;;;;;;15.00;8.40;;;;;;;;;;5051438;28;20037;-64
2024/01/30 06:57:42;;;;;;;12.70;8.43;;;;;;;;;;5054341;28;20032;-65
2024/01/30 07:00:08;;;;;;;13.93;8.18;;;;;;;;;;5055123;28;20040;-65
2024/01/30 07:02:33;;;;;;;12.90;7.75;;;;;;;;;;5054591;28;20078;-63
2024/01/30 07:04:59;;;;;;;13.80;7.65;;;;;;;;;;5054514;28;20033;-65
2024/01/30 07:07:24;;;;;;;13.68;7.43;;;;;;;;;;5048383;28;20033;-62
2024/01/30 07:09:52;;;;;;;14.93;7.45;;;;;;;;;;5035301;28;20086;-65
2024/01/30 07:12:18;;;;;;;13.15;8.13;;;;;;;;;;5040754;28;20044;-63
2024/01/30 07:14:43;;;;;;;16.75;8.35;;;;;;;;;;5055115;28;20033;-63
2024/01/30 07:17:08;;;;;;;16.85;9.05;;;;;;;;;;5054117;28;20037;-64
2024/01/30 07:19:34;;;;;;;20.52;10.73;;;;;;;;;;5049226;28;20030;-64
2024/01/30 07:22:00;;;;;;;17.40;9.55;;;;;;;;;;5035012;28;20053;-65
2024/01/30 07:24:26;;;;;;;20.95;11.52;;;;;;;;;;5036427;28;20049;-64
2024/01/30 07:26:52;;;;;;;22.08;11.65;;;;;;;;;;5040448;28;20029;-64
2024/01/30 07:29:17;;;;;;;20.98;10.88;;;;;;;;;;5034237;28;20025;-64
2024/01/30 07:31:43;;;;;;;16.08;8.50;;;;;;;;;;5050136;28;20457;-64
2024/01/30 07:34:09;;;;;;;16.48;8.68;;;;;;;;;;5035724;28;20056;-63
2024/01/30 07:36:34;;;;;;;15.98;8.27;;;;;;;;;;5038853;28;20033;-64
2024/01/30 07:39:00;;;;;;;15.10;8.32;;;;;;;;;;5050040;28;20035;-64
2024/01/30 07:41:25;;;;;;;13.73;7.85;;;;;;;;;;5052461;28;20033;-63
2024/01/30 07:43:51;;;;;;;10.75;6.57;;;;;;;;;;5038323;28;20108;-63
2024/01/30 07:46:16;;;;;;;14.40;7.80;;;;;;;;;;5034000;28;20037;-63
2024/01/30 07:48:41;;;;;;;14.98;8.00;;;;;;;;;;5034949;28;20086;-61
2024/01/30 07:51:07;;;;;;;17.75;8.90;;;;;;;;;;5034113;28;20034;-63
2024/01/30 07:53:33;;;;;;;15.80;8.68;;;;;;;;;;5032760;28;20044;-63
2024/01/30 07:55:58;;;;;;;14.65;8.40;;;;;;;;;;5051132;28;20040;-63
2024/01/30 07:58:23;;;;;;;14.82;8.82;;;;;;;;;;5053190;28;20025;-63
2024/01/30 08:00:49;;;;;;;12.40;8.27;;;;;;;;;;5054385;28;20029;-64
2024/01/30 08:03:16;;;;;;;13.75;8.40;;;;;;;;;;5053347;28;20036;-65
2024/01/30 08:05:42;;;;;;;20.88;8.23;;;;;;;;;;5053743;28;20033;-65
2024/01/30 08:08:07;;;;;;;13.38;8.20;;;;;;;;;;5044944;28;20035;-64
2024/01/30 08:10:32;;;;;;;14.57;8.63;;;;;;;;;;5047141;28;20033;-65
2024/01/30 08:12:58;;;;;;;18.85;8.40;;;;;;;;;;5053956;28;20052;-63
2024/01/30 08:15:24;;;;;;;21.75;8.48;;;;;;;;;;5054135;28;20072;-63
2024/01/30 08:17:49;;;;;;;14.85;8.02;;;;;;;;;;5034950;28;20069;-64
2024/01/30 08:20:16;;;;;;;14.40;7.30;;;;;;;;;;5033607;28;20072;-64
2024/01/30 08:22:41;;;;;;;13.10;7.65;;;;;;;;;;5033920;28;20057;-64
2024/01/30 08:25:08;;;;;;;12.77;7.38;;;;;;;;;;5045416;28;20029;-62
2024/01/30 08:27:35;;;;;;;12.98;7.35;;;;;;;;;;5052146;28;20035;-63
2024/01/30 08:30:01;;;;;;;16.27;7.63;;;;;;;;;;5052334;28;20033;-64
2024/01/30 08:32:26;;;;;;;12.90;7.68;;;;;;;;;;5051070;28;20119;-65
2024/01/30 08:34:52;;;;;;;10.45;7.15;;;;;;;;;;5053491;28;20117;-64
2024/01/30 08:37:17;;;;;;;12.05;7.03;;;;;;;;;;5052615;28;20044;-64
2024/01/30 08:39:43;;;;;;;13.90;7.10;;;;;;;;;;5052407;28;20071;-65
2024/01/30 08:42:09;;;;;;;11.52;6.93;;;;;;;;;;5047806;28;20057;-63
2024/01/30 08:44:34;;;;;;;11.95;7.18;;;;;;;;;;5043140;28;20060;-64
2024/01/30 08:47:00;;;;;;;12.90;6.78;;;;;;;;;;5053568;28;20079;-65
2024/01/30 08:49:25;;;;;;;13.50;7.50;;;;;;;;;;5049518;28;20545;-64
2024/01/30 08:51:50;;;;;;;11.43;6.55;;;;;;;;;;5053108;28;20029;-65
2024/01/30 08:54:16;;;;;;;9.68;6.57;;;;;;;;;;5052362;28;20477;-64
2024/01/30 08:56:41;;;;;;;13.38;6.80;;;;;;;;;;5050054;28;20413;-63
2024/01/30 08:59:06;;;;;;;10.50;6.50;;;;;;;;;;5052941;28;20033;-63
2024/01/30 09:01:32;;;;;;;9.82;5.85;;;;;;;;;;5051960;28;20033;-63
2024/01/30 09:03:57;;;;;;;12.05;5.80;;;;;;;;;;5051884;28;20067;-65
2024/01/30 09:06:24;;;;;;;11.88;6.10;;;;;;;;;;5051516;28;20488;-65
2024/01/30 09:08:49;;;;;;;10.02;6.00;;;;;;;;;;5047520;28;20030;-64
2024/01/30 09:11:15;;;;;;;8.38;5.22;;;;;;;;;;5044066;28;20033;-63
2024/01/30 09:13:41;;;;;;;11.43;5.75;;;;;;;;;;5052463;28;20036;-64
2024/01/30 09:16:07;;;;;;;11.07;7.32;;;;;;;;;;5039122;28;20091;-64
2024/01/30 09:18:32;;;;;;;10.65;5.70;;;;;;;;;;5058279;28;20028;-64
2024/01/30 09:20:58;;;;;;;12.43;5.78;;;;;;;;;;5052236;28;20029;-63
2024/01/30 09:23:23;;;;;;;11.75;6.30;;;;;;;;;;5061045;28;20457;-64
2024/01/30 09:25:49;;;;;;;12.35;6.05;;;;;;;;;;5052292;28;20363;-65
2024/01/30 09:28:14;;;;;;;11.38;5.88;;;;;;;;;;5051771;28;20428;-64
2024/01/30 09:30:40;;;;;;;10.45;6.07;;;;;;;;;;5052325;28;20035;-65
2024/01/30 09:33:06;;;;;;;9.65;5.60;;;;;;;;;;5036899;28;20033;-64
2024/01/30 09:35:32;;;;;;;12.85;5.80;;;;;;;;;;5047030;28;20099;-65
2024/01/30 09:37:57;;;;;;;11.18;5.30;;;;;;;;;;5032567;28;20029;-64
2024/01/30 09:40:23;;;;;;;10.73;6.00;;;;;;;;;;5031749;28;20400;-64
2024/01/30 09:42:51;;;;;;;10.25;6.13;;;;;;;;;;5041891;28;20044;-65
2024/01/30 09:45:19;;;;;;;12.88;6.40;;;;;;;;;;5050541;28;20029;-65
2024/01/30 09:47:46;;;;;;;11.13;5.82;;;;;;;;;;5038839;28;20029;-65
2024/01/30 09:50:14;;;;;;;9.68;5.85;;;;;;;;;;5045579;28;20494;-64
2024/01/30 09:52:40;;;;;;;9.60;5.32;;;;;;;;;;5049014;28;20037;-64
2024/01/30 09:55:07;;;;;;;9.45;5.38;;;;;;;;;;5032442;28;20096;-65
2024/01/30 09:57:33;;;;;;;10.82;5.75;;;;;;;;;;5034553;28;20025;-62
2024/01/30 09:59:59;;;;;;;11.25;5.72;;;;;;;;;;5049335;28;20029;-64
2024/01/30 10:02:24;;;;;;;9.70;5.82;;;;;;;;;;5042658;28;20037;-64
2024/01/30 10:04:51;;;;;;;12.27;5.70;;;;;;;;;;5051828;28;20033;-63
2024/01/30 10:07:17;;;;;;;13.48;5.75;;;;;;;;;;5051109;28;20087;-62
2024/01/30 10:09:42;;;;;;;15.82;6.10;;;;;;;;;;5051772;28;20073;-64
2024/01/30 10:12:12;;;;;;;12.30;5.95;;;;;;;;;;5049006;28;20390;-63
2024/01/30 10:14:41;;;;;;;10.43;5.65;;;;;;;;;;5031848;28;20120;-64
2024/01/30 10:17:10;;;;;;;11.98;6.00;;;;;;;;;;5032205;28;20087;-64
2024/01/30 10:19:36;;;;;;;9.35;5.38;;;;;;;;;;5035784;28;20029;-63
2024/01/30 10:22:02;;;;;;;9.15;5.18;;;;;;;;;;5051789;28;20076;-64
2024/01/30 10:24:29;;;;;;;10.70;5.55;;;;;;;;;;5040863;28;20502;-63
2024/01/30 10:26:55;;;;;;;8.32;5.28;;;;;;;;;;5031784;28;20049;-62
2024/01/30 10:29:20;;;;;;;8.38;5.25;;;;;;;;;;5029824;28;20064;-65
2024/01/30 10:31:46;;;;;;;9.00;5.13;;;;;;;;;;5031707;28;20419;-65
2024/01/30 10:34:12;;;;;;;10.23;5.22;;;;;;;;;;5033627;28;20455;-63
2024/01/30 10:36:43;;;;;;;10.70;4.95;;;;;;;;;;5050726;28;20063;-65
2024/01/30 10:39:09;;;;;;;10.43;5.15;;;;;;;;;;5032438;28;20402;-66
2024/01/30 10:41:42;;;;;;;7.97;4.95;;;;;;;;;;5030626;28;20033;-62
2024/01/30 10:44:09;;;;;;;8.25;5.13;;;;;;;;;;5031378;28;20083;-64
2024/01/30 10:46:37;;;;;;;9.52;5.20;;;;;;;;;;5034066;28;20033;-63
2024/01/30 10:49:03;;;;;;;10.18;4.95;;;;;;;;;;5031334;28;20524;-64
2024/01/30 10:51:30;;;;;;;9.13;4.95;;;;;;;;;;5030645;28;20490;-63
2024/01/30 10:53:56;;;;;;;8.52;4.93;;;;;;;;;;5031150;28;20041;-64
2024/01/30 10:56:22;;;;;;;8.88;5.05;;;;;;;;;;5046332;28;20396;-64
2024/01/30 10:58:51;;;;;;;10.40;5.45;;;;;;;;;;5049934;28;20025;-64
2024/01/30 11:01:17;;;;;;;11.27;5.40;;;;;;;;;;5050125;28;20033;-62
2024/01/30 11:03:42;;;;;;;20.25;5.43;;;;;;;;;;5042548;28;20033;-62
2024/01/30 11:06:13;;;;;;;8.63;5.20;;;;;;;;;;5046026;28;20032;-64
2024/01/30 11:08:39;;;;;;;8.40;5.25;;;;;;;;;;5030774;28;20037;-63
2024/01/30 11:11:09;;;;;;;8.00;5.05;;;;;;;;;;5044907;28;20025;-63
2024/01/30 11:13:34;;;;;;;10.40;5.53;;;;;;;;;;5048195;28;20033;-62
2024/01/30 11:16:04;;;;;;;12.52;5.30;;;;;;;;;;5048058;28;20036;-62
2024/01/30 11:18:31;;;;;;;15.63;5.97;;;;;;;;;;5030346;28;20232;-62
2024/01/30 11:20:58;;;;;;;11.18;5.05;;;;;;;;;;5029989;28;20545;-62
2024/01/30 11:23:23;;;;;;;9.75;5.15;;;;;;;;;;5030206;28;20522;-62
2024/01/30 11:25:49;;;;;;;10.60;5.03;;;;;;;;;;5031015;28;20128;-62
2024/01/30 11:28:18;;;;;;;9.20;4.80;;;;;;;;;;5029689;28;20386;-62
2024/01/30 11:30:44;;;;;;;9.60;5.78;;;;;;;;;;5031411;28;20037;-62
2024/01/30 11:33:14;;;;;;;9.68;5.65;;;;;;;;;;5034843;28;20064;-61
2024/01/30 11:35:50;;;;;;;11.15;5.85;;;;;;;;;;5029929;28;20128;-62
2024/01/30 11:38:15;;;;;;;12.65;5.95;;;;;;;;;;5038868;28;20025;-62
2024/01/30 11:40:41;;;;;;;9.35;5.40;;;;;;;;;;5031119;28;20084;-62
2024/01/30 11:43:08;;;;;;;13.13;5.75;;;;;;;;;;5034621;28;20108;-62
2024/01/30 11:45:35;;;;;;;13.40;6.00;;;;;;;;;;5033458;28;20067;-62
2024/01/30 11:48:03;;;;;;;13.00;6.10;;;;;;;;;;5046800;28;20033;-65
2024/01/30 11:50:29;;;;;;;12.60;5.65;;;;;;;;;;5051823;28;20044;-63
2024/01/30 11:52:54;;;;;;;12.60;5.90;;;;;;;;;;5054840;28;20029;-64
2024/01/30 11:55:20;;;;;;;12.30;5.93;;;;;;;;;;5053737;28;20037;-64
2024/01/30 11:57:45;;;;;;;12.10;5.72;;;;;;;;;;5042092;28;20084;-64
2024/01/30 12:00:18;;;;;;;11.90;6.07;;;;;;;;;;5034397;28;20057;-64
2024/01/30 12:02:48;;;;;;;13.48;6.13;;;;;;;;;;5033944;28;20029;-66
2024/01/30 12:05:14;;;;;;;11.90;6.40;;;;;;;;;;5034209;28;20061;-64
2024/01/30 12:07:39;;;;;;;9.48;5.90;;;;;;;;;;5033109;28;20063;-65
2024/01/30 12:10:05;;;;;;;11.90;6.45;;;;;;;;;;5044021;28;20029;-63
2024/01/30 12:12:31;;;;;;;11.45;6.45;;;;;;;;;;5053191;28;20079;-65
2024/01/30 12:14:56;;;;;;;12.50;6.35;;;;;;;;;;5052432;28;20049;-61
2024/01/30 12:17:32;;;;;;;12.18;6.22;;;;;;;;;;5044497;28;20029;-63
2024/01/30 12:20:07;;;;;;;12.32;5.88;;;;;;;;;;5053581;28;20120;-66
2024/01/30 12:22:38;;;;;;;12.02;6.28;;;;;;;;;;5051450;28;20480;-62
2024/01/30 12:25:08;;;;;;;14.95;6.20;;;;;;;;;;5045748;28;20025;-65
2024/01/30 12:27:33;;;;;;;13.25;6.72;;;;;;;;;;5032898;28;20424;-65
2024/01/30 12:29:59;;;;;;;9.05;5.72;;;;;;;;;;5032566;28;20026;-66
2024/01/30 12:32:24;;;;;;;13.15;6.70;;;;;;;;;;5033151;28;20033;-65
2024/01/30 12:34:50;;;;;;;11.50;6.32;;;;;;;;;;5033697;28;20108;-62
2024/01/30 12:37:19;;;;;;;11.35;6.00;;;;;;;;;;5037804;28;20485;-64
2024/01/30 12:39:45;;;;;;;13.13;6.47;;;;;;;;;;5037468;28;20044;-65
2024/01/30 12:42:11;;;;;;;14.05;6.40;;;;;;;;;;5033703;28;20140;-62
2024/01/30 12:44:36;;;;;;;13.63;6.80;;;;;;;;;;5032684;28;20529;-63
2024/01/30 12:47:05;;;;;;;17.25;6.63;;;;;;;;;;5033467;28;20037;-71
2024/01/30 12:49:30;;;;;;;11.55;6.03;;;;;;;;;;5032967;28;20041;-64
2024/01/30 12:51:56;;;;;;;16.23;6.60;;;;;;;;;;5033626;28;20057;-66
2024/01/30 12:54:23;;;;;;;12.18;6.18;;;;;;;;;;5052802;28;20040;-65
2024/01/30 12:56:48;;;;;;;13.18;6.50;;;;;;;;;;5053982;28;20036;-65
2024/01/30 12:59:13;;;;;;;15.30;6.50;;;;;;;;;;5038142;28;20029;-66
2024/01/30 13:01:39;;;;;;;16.05;6.28;;;;;;;;;;5045523;28;20040;-63
2024/01/30 13:04:04;;;;;;;13.18;6.53;;;;;;;;;;5033253;28;20030;-62
2024/01/30 13:06:30;;;;;;;12.30;5.97;;;;;;;;;;5042727;28;20029;-64
2024/01/30 13:08:55;;;;;;;13.80;6.78;;;;;;;;;;5053105;28;20496;-64
2024/01/30 13:11:21;;;;;;;13.00;6.57;;;;;;;;;;5038516;28;20033;-64
2024/01/30 13:13:46;;;;;;;13.55;6.72;;;;;;;;;;5047959;28;20068;-65
2024/01/30 13:16:12;;;;;;;13.35;6.20;;;;;;;;;;5036738;28;20041;-64
2024/01/30 13:18:37;;;;;;;12.82;7.03;;;;;;;;;;5033030;28;20029;-65
2024/01/30 13:21:02;;;;;;;17.08;6.30;;;;;;;;;;5037546;28;20037;-66
2024/01/30 13:23:28;;;;;;;12.77;6.93;;;;;;;;;;5046479;28;20056;-66
2024/01/30 13:25:57;;;;;;;11.23;6.25;;;;;;;;;;5051044;28;20086;-65
2024/01/30 13:28:23;;;;;;;10.80;6.35;;;;;;;;;;5052289;28;20037;-65
2024/01/30 13:30:48;;;;;;;16.83;7.22;;;;;;;;;;5035061;28;20052;-65
2024/01/30 13:33:13;;;;;;;13.38;6.90;;;;;;;;;;5032736;28;20039;-64
2024/01/30 13:35:39;;;;;;;16.77;7.40;;;;;;;;;;5031942;28;20041;-64
2024/01/30 13:38:04;;;;;;;16.00;7.53;;;;;;;;;;5043020;28;20037;-65
2024/01/30 13:40:29;;;;;;;17.58;7.63;;;;;;;;;;5048732;28;20033;-65
2024/01/30 13:42:55;;;;;;;14.82;8.40;;;;;;;;;;5052465;28;20030;-65
2024/01/30 13:45:20;;;;;;;13.95;7.07;;;;;;;;;;5052232;28;20040;-63
2024/01/30 13:47:46;;;;;;;18.70;8.73;;;;;;;;;;5048057;28;20131;-65
2024/01/30 13:50:14;;;;;;;13.68;7.43;;;;;;;;;;5052122;28;20032;-65
2024/01/30 13:52:41;;;;;;;14.30;7.55;;;;;;;;;;5044385;28;20021;-65
2024/01/30 13:55:06;;;;;;;13.98;7.40;;;;;;;;;;5047089;28;20029;-64
2024/01/30 13:57:34;;;;;;;18.55;7.15;;;;;;;;;;5048406;28;20517;-64
2024/01/30 14:00:00;;;;;;;13.02;7.28;;;;;;;;;;5052232;28;20039;-63
2024/01/30 14:02:25;;;;;;;14.25;7.03;;;;;;;;;;5051502;28;20029;-63
2024/01/30 14:04:51;;;;;;;13.77;6.55;;;;;;;;;;5046044;28;20130;-65
2024/01/30 14:07:18;;;;;;;15.00;8.38;;;;;;;;;;5056494;28;20036;-65
2024/01/30 14:09:44;;;;;;;14.73;7.45;;;;;;;;;;5069062;28;20182;-64
2024/01/30 14:12:09;;;;;;;17.10;7.80;;;;;;;;;;5051826;28;20528;-65
2024/01/30 14:14:35;;;;;;;13.13;6.97;;;;;;;;;;5044784;28;20108;-66
2024/01/30 14:17:01;;;;;;;14.57;8.27;;;;;;;;;;5031644;28;20413;-65
2024/01/30 14:19:26;;;;;;;15.73;7.75;;;;;;;;;;5040897;28;20397;-64
2024/01/30 14:21:51;;;;;;;15.13;7.18;;;;;;;;;;5040594;28;20109;-65
2024/01/30 14:24:17;;;;;;;17.30;7.50;;;;;;;;;;5048097;28;20081;-65